createdAt,value
2022-12-08T00:00:09.576Z,89.25
2022-12-08T00:03:15.518Z,88.78
2022-12-08T00:06:42.927Z,89.03
2022-12-08T00:09:45.675Z,89.82
2022-12-08T00:12:48.441Z,90.31
2022-12-08T00:15:51.139Z,90.50
2022-12-08T00:18:53.915Z,90.70
2022-12-08T00:21:57.338Z,90.69
2022-12-08T00:25:00.295Z,90.45
2022-12-08T00:28:03.402Z,90.25
2022-12-08T00:31:10.978Z,91.04
2022-12-08T00:34:15.046Z,91.22
2022-12-08T00:37:17.769Z,90.62
2022-12-08T00:40:20.486Z,91.05
2022-12-08T00:43:23.228Z,90.75
2022-12-08T00:46:26.109Z,90.65
2022-12-08T00:49:29.062Z,90.12
2022-12-08T00:52:31.974Z,89.16
2022-12-08T00:55:34.697Z,88.43
2022-12-08T00:58:37.588Z,89.72
2022-12-08T01:01:40.395Z,89.51
2022-12-08T01:04:43.411Z,89.81
2022-12-08T01:07:46.308Z,89.73
2022-12-08T01:10:49.130Z,90.41
2022-12-08T01:13:51.987Z,90.47
2022-12-08T01:16:54.981Z,90.86
2022-12-08T01:19:57.741Z,90.45
2022-12-08T01:23:00.605Z,90.08
2022-12-08T01:26:05.188Z,89.82
2022-12-08T01:29:08.382Z,90.20
2022-12-08T01:32:11.274Z,90.42
2022-12-08T01:35:14.359Z,90.82
2022-12-08T01:38:17.449Z,90.30
2022-12-08T01:41:22.830Z,90.12
2022-12-08T01:44:25.583Z,89.66
2022-12-08T01:47:34.993Z,89.59
2022-12-08T01:50:40.066Z,89.96
2022-12-08T01:53:43.543Z,90.74
2022-12-08T01:57:11.990Z,90.34
2022-12-08T02:00:17.652Z,90.31
2022-12-08T02:03:59.138Z,89.81
2022-12-08T02:07:07.821Z,89.81
2022-12-08T02:10:14.534Z,89.55
2022-12-08T02:13:19.318Z,90.13
2022-12-08T02:16:22.188Z,90.15
2022-12-08T02:20:03.814Z,89.99
2022-12-08T02:23:11.277Z,89.72
2022-12-08T02:26:35.427Z,89.72
2022-12-08T02:30:07.803Z,90.33
2022-12-08T02:33:31.398Z,90.28
2022-12-08T02:36:47.423Z,90.43
2022-12-08T02:40:22.996Z,89.60
2022-12-08T02:43:47.775Z,89.30
2022-12-08T02:47:06.149Z,89.54
2022-12-08T02:50:09.993Z,89.13
2022-12-08T02:56:17.361Z,89.12
2022-12-08T02:59:33.895Z,90.23
2022-12-08T03:03:02.564Z,89.76
2022-12-08T03:06:24.097Z,89.62
2022-12-08T03:09:46.996Z,90.01
2022-12-08T03:12:57.748Z,90.30
2022-12-08T03:16:04.826Z,90.68
2022-12-08T03:19:21.332Z,90.38
2022-12-08T03:22:27.790Z,90.63
2022-12-08T03:25:33.764Z,91.09
2022-12-08T03:28:36.642Z,91.24
2022-12-08T03:31:44.618Z,91.50
2022-12-08T03:34:51.029Z,91.09
2022-12-08T03:38:09.115Z,91.15
2022-12-08T03:41:21.322Z,90.36
2022-12-08T03:44:24.190Z,90.72
2022-12-08T03:47:26.996Z,90.57
2022-12-08T03:50:29.849Z,90.61
2022-12-08T03:53:32.578Z,91.16
2022-12-08T03:56:38.281Z,90.85
2022-12-08T03:59:41.366Z,91.40
2022-12-08T04:02:44.252Z,91.25
2022-12-08T04:05:47.018Z,91.77
2022-12-08T04:08:51.122Z,91.69
2022-12-08T04:11:53.874Z,91.57
2022-12-08T04:14:56.558Z,91.75
2022-12-08T04:17:59.377Z,91.73
2022-12-08T04:21:02.843Z,92.25
2022-12-08T04:24:05.841Z,92.42
2022-12-08T04:27:08.682Z,92.72
2022-12-08T04:30:12.116Z,92.46
2022-12-08T04:33:14.865Z,91.99
2022-12-08T04:36:17.660Z,91.81
2022-12-08T04:39:21.386Z,92.39
2022-12-08T04:42:24.121Z,91.96
2022-12-08T04:45:26.961Z,92.16
2022-12-08T04:48:29.959Z,91.78
2022-12-08T04:51:32.745Z,91.34
2022-12-08T04:54:35.571Z,90.70
2022-12-08T04:57:38.392Z,90.99
2022-12-08T05:00:41.609Z,90.36
2022-12-08T05:03:44.401Z,90.27
2022-12-08T05:06:47.185Z,90.12
2022-12-08T05:09:49.969Z,89.17
2022-12-08T05:12:52.883Z,89.22
2022-12-08T05:16:06.159Z,89.41
2022-12-08T05:19:09.539Z,89.75
2022-12-08T05:22:12.498Z,89.52
2022-12-08T05:25:15.544Z,88.47
2022-12-08T05:28:40.735Z,88.96
2022-12-08T05:31:41.242Z,88.96
2022-12-08T05:34:44.156Z,88.53
2022-12-08T05:37:47.010Z,88.27
2022-12-08T05:40:49.839Z,88.17
2022-12-08T05:43:52.650Z,88.71
2022-12-08T05:46:55.504Z,88.96
2022-12-08T05:49:58.303Z,89.25
2022-12-08T05:53:01.076Z,89.29
2022-12-08T05:56:04.040Z,90.31
2022-12-08T05:59:07.589Z,89.92
2022-12-08T06:02:10.397Z,89.92
2022-12-08T06:05:13.438Z,90.50
2022-12-08T06:08:16.452Z,90.22
2022-12-08T06:11:21.566Z,91.03
2022-12-08T06:14:24.435Z,90.33
2022-12-08T06:17:27.274Z,90.52
2022-12-08T06:20:30.085Z,90.39
2022-12-08T06:23:32.863Z,90.72
2022-12-08T06:26:36.253Z,90.52
2022-12-08T06:29:39.373Z,89.89
2022-12-08T06:32:42.441Z,90.00
2022-12-08T06:35:45.291Z,89.45
2022-12-08T06:38:48.627Z,89.54
2022-12-08T06:42:09.810Z,89.42
2022-12-08T06:45:17.112Z,89.35
2022-12-08T06:48:20.032Z,89.65
2022-12-08T06:51:25.716Z,89.84
2022-12-08T06:54:28.771Z,89.53
2022-12-08T06:57:31.820Z,89.31
2022-12-08T07:00:34.658Z,89.68
2022-12-08T07:03:38.702Z,89.59
2022-12-08T07:06:41.802Z,88.98
2022-12-08T07:09:44.963Z,89.10
2022-12-08T07:12:48.081Z,89.17
2022-12-08T07:15:52.607Z,89.17
2022-12-08T07:18:57.061Z,88.23
2022-12-08T07:22:00.743Z,87.80
2022-12-08T07:25:03.776Z,87.43
2022-12-08T07:28:13.090Z,87.45
2022-12-08T07:31:26.973Z,86.98
2022-12-08T07:34:33.751Z,86.44
2022-12-08T07:37:38.264Z,86.06
2022-12-08T07:40:41.288Z,85.68
2022-12-08T07:43:48.207Z,85.42
2022-12-08T07:46:51.372Z,85.25
2022-12-08T07:49:54.474Z,83.46
2022-12-08T07:52:58.533Z,83.36
2022-12-08T07:56:01.355Z,83.28
2022-12-08T07:59:04.563Z,82.66
2022-12-08T08:02:24.290Z,82.06
2022-12-08T08:05:28.537Z,82.19
2022-12-08T08:08:34.780Z,82.65
2022-12-08T08:11:37.995Z,82.93
2022-12-08T08:14:40.879Z,83.16
2022-12-08T08:17:43.644Z,82.89
2022-12-08T08:20:46.514Z,82.99
2022-12-08T08:23:49.570Z,82.55
2022-12-08T08:26:53.726Z,82.06
2022-12-08T08:29:56.684Z,82.29
2022-12-08T08:33:01.225Z,82.71
2022-12-08T08:36:08.412Z,83.11
2022-12-08T08:39:11.269Z,82.42
2022-12-08T08:42:15.671Z,82.31
2022-12-08T08:45:18.547Z,84.19
2022-12-08T08:48:21.603Z,83.60
2022-12-08T08:51:24.596Z,83.61
2022-12-08T08:54:29.629Z,82.85
2022-12-08T08:57:32.609Z,82.32
2022-12-08T09:00:35.404Z,82.46
2022-12-08T09:03:38.808Z,81.88
2022-12-08T09:06:45.586Z,81.70
2022-12-08T09:09:50.398Z,81.01
2022-12-08T09:12:53.415Z,81.54
2022-12-08T09:15:56.594Z,80.54
2022-12-08T09:19:00.649Z,80.75
2022-12-08T09:23:04.760Z,80.54
2022-12-08T09:26:09.350Z,80.07
2022-12-08T09:29:13.971Z,79.80
2022-12-08T09:32:17.065Z,77.98
2022-12-08T09:35:20.135Z,79.32
2022-12-08T09:38:23.219Z,78.67
2022-12-08T09:41:38.779Z,78.55
2022-12-08T09:45:10.015Z,78.04
2022-12-08T09:48:15.518Z,78.55
2022-12-08T09:51:18.891Z,77.15
2022-12-08T09:54:35.208Z,77.92
2022-12-08T09:57:38.388Z,76.66
2022-12-08T10:00:41.173Z,76.04
2022-12-08T10:03:44.085Z,76.38
2022-12-08T10:06:53.228Z,76.53
2022-12-08T10:10:04.749Z,75.69
2022-12-08T10:13:22.115Z,77.27
2022-12-08T10:16:35.099Z,75.16
2022-12-08T10:19:40.869Z,69.99
2022-12-08T10:22:49.965Z,69.41
2022-12-08T10:26:01.087Z,70.84
2022-12-08T10:29:04.083Z,70.16
2022-12-08T10:32:17.235Z,70.87
2022-12-08T10:35:23.043Z,71.69
2022-12-08T10:38:36.373Z,72.48
2022-12-08T10:41:40.438Z,73.68
2022-12-08T10:45:24.909Z,74.85
2022-12-08T10:48:33.383Z,75.32
2022-12-08T10:51:42.097Z,74.21
2022-12-08T10:54:46.835Z,75.27
2022-12-08T10:57:50.780Z,73.82
2022-12-08T11:01:03.216Z,72.79
2022-12-08T11:04:18.853Z,74.12
2022-12-08T11:07:23.682Z,73.70
2022-12-08T11:10:37.753Z,73.65
2022-12-08T11:13:42.356Z,74.26
2022-12-08T11:16:45.725Z,74.05
2022-12-08T11:20:12.608Z,74.73
2022-12-08T11:27:59.882Z,73.34
2022-12-08T11:31:21.075Z,72.79
2022-12-08T11:34:38.987Z,72.51
2022-12-08T11:37:43.827Z,73.43
2022-12-08T11:40:53.462Z,73.25
2022-12-08T11:44:24.631Z,73.14
2022-12-08T11:47:41.332Z,73.85
2022-12-08T11:50:52.991Z,74.62
2022-12-08T11:54:28.870Z,74.10
2022-12-08T11:57:32.341Z,75.00
2022-12-08T12:00:35.680Z,74.88
2022-12-08T12:04:04.688Z,75.51
2022-12-08T12:07:42.026Z,76.53
2022-12-08T12:11:09.582Z,77.61
2022-12-08T12:14:12.384Z,77.11
2022-12-08T12:17:40.692Z,76.73
2022-12-08T12:21:06.785Z,77.62
2022-12-08T12:24:30.496Z,78.32
2022-12-08T12:27:41.559Z,78.73
2022-12-08T12:31:15.924Z,78.36
2022-12-08T12:34:24.305Z,78.06
2022-12-08T12:37:39.137Z,78.07
2022-12-08T12:40:42.322Z,78.14
2022-12-08T12:44:10.564Z,78.08
2022-12-08T12:47:15.121Z,77.38
2022-12-08T12:50:33.565Z,78.21
2022-12-08T12:53:36.420Z,78.61
2022-12-08T12:57:08.635Z,78.43
2022-12-08T13:00:20.458Z,78.03
2022-12-08T13:03:25.023Z,77.81
2022-12-08T13:06:44.988Z,77.96
2022-12-08T13:10:33.854Z,77.42
2022-12-08T13:13:57.311Z,78.50
2022-12-08T13:17:02.297Z,78.78
2022-12-08T13:20:17.708Z,79.56
2022-12-08T13:23:57.807Z,78.66
2022-12-08T13:27:14.833Z,78.98
2022-12-08T13:30:45.409Z,79.29
2022-12-08T13:33:48.562Z,79.94
2022-12-08T13:37:00.424Z,79.74
2022-12-08T13:40:16.395Z,80.19
2022-12-08T13:43:52.444Z,80.42
2022-12-08T13:47:32.916Z,80.77
2022-12-08T13:51:55.004Z,80.65
2022-12-08T13:57:35.800Z,81.20
2022-12-08T14:00:39.416Z,81.65
2022-12-08T14:04:42.148Z,82.13
2022-12-08T14:07:22.959Z,82.75
2022-12-08T14:10:30.583Z,82.79
2022-12-08T14:13:34.262Z,82.71
2022-12-08T14:16:49.822Z,83.39
2022-12-08T14:20:02.141Z,83.23
2022-12-08T14:23:07.863Z,84.10
2022-12-08T14:26:12.845Z,84.41
2022-12-08T14:29:40.067Z,83.95
2022-12-08T14:32:58.802Z,83.89
2022-12-08T14:36:01.599Z,84.69
2022-12-08T14:39:04.456Z,85.07
2022-12-08T14:42:07.912Z,85.15
2022-12-08T14:45:13.252Z,85.59
2022-12-08T14:48:29.660Z,86.30
2022-12-08T14:51:33.729Z,86.45
2022-12-08T14:54:36.660Z,86.98
2022-12-08T14:57:39.851Z,87.36
2022-12-08T15:00:50.182Z,87.89
2022-12-08T15:03:55.655Z,88.13
2022-12-08T15:07:04.890Z,87.47
2022-12-08T15:10:10.219Z,87.10
2022-12-08T15:13:13.075Z,88.19
2022-12-08T15:16:27.237Z,87.78
2022-12-08T15:19:33.429Z,88.20
2022-12-08T15:22:36.286Z,88.55
2022-12-08T15:25:39.076Z,89.02
2022-12-08T15:28:41.931Z,88.67
2022-12-08T15:31:44.964Z,88.44
2022-12-08T15:34:48.370Z,88.47
2022-12-08T15:37:51.250Z,87.87
2022-12-08T15:40:55.290Z,87.70
2022-12-08T15:43:58.209Z,87.52
2022-12-08T15:47:01.229Z,87.17
2022-12-08T15:50:05.017Z,87.18
2022-12-08T15:53:10.754Z,87.80
2022-12-08T15:56:30.104Z,88.21
2022-12-08T15:59:33.227Z,88.53
2022-12-08T16:03:04.938Z,88.95
2022-12-08T16:06:50.808Z,88.45
2022-12-08T16:09:41.595Z,89.70
2022-12-08T16:16:29.310Z,90.29
2022-12-08T16:19:32.052Z,90.10
2022-12-08T16:29:22.713Z,90.53
2022-12-08T16:32:27.152Z,90.77
2022-12-08T16:35:30.825Z,90.81
2022-12-08T16:38:36.029Z,90.78
2022-12-08T16:42:01.192Z,91.50
2022-12-08T16:45:10.145Z,91.56
2022-12-08T16:48:14.811Z,91.53
2022-12-08T16:51:26.481Z,92.48
2022-12-08T16:54:30.288Z,93.11
2022-12-08T16:57:33.018Z,93.45
2022-12-08T17:00:38.733Z,93.54
2022-12-08T17:03:51.736Z,93.32
2022-12-08T17:07:05.806Z,93.30
2022-12-08T17:10:10.903Z,93.60
2022-12-08T17:13:16.997Z,94.00
2022-12-08T17:16:20.420Z,94.21
2022-12-08T17:19:23.449Z,94.04
2022-12-08T17:22:26.481Z,94.08
2022-12-08T17:25:29.363Z,93.19
2022-12-08T17:28:58.853Z,93.70
2022-12-08T17:31:55.472Z,92.60
2022-12-08T17:34:58.474Z,92.70
2022-12-08T17:38:01.251Z,92.21
2022-12-08T17:41:07.294Z,91.71
2022-12-08T17:44:12.319Z,91.37
2022-12-08T17:47:15.078Z,90.38
2022-12-08T17:50:18.254Z,91.15
2022-12-08T17:53:22.158Z,91.04
2022-12-08T17:56:25.018Z,90.03
2022-12-08T17:59:29.052Z,90.61
2022-12-08T18:02:33.675Z,89.77
2022-12-08T18:05:37.088Z,89.96
2022-12-08T18:08:40.770Z,89.23
2022-12-08T18:11:44.643Z,90.04
2022-12-08T18:14:48.392Z,90.57
2022-12-08T18:17:51.332Z,90.31
2022-12-08T18:20:54.567Z,90.36
2022-12-08T18:23:57.667Z,89.96
2022-12-08T18:27:00.587Z,89.37
2022-12-08T18:30:04.183Z,90.21
2022-12-08T18:33:08.451Z,89.29
2022-12-08T18:36:15.242Z,89.38
2022-12-08T18:39:29.465Z,89.58
2022-12-08T18:42:32.823Z,89.84
2022-12-08T18:45:38.879Z,90.75
2022-12-08T18:48:47.394Z,91.21
2022-12-08T18:51:50.339Z,90.95
2022-12-08T18:55:09.060Z,90.60
2022-12-08T18:58:15.179Z,90.66
2022-12-08T19:01:19.842Z,90.40
2022-12-08T19:04:31.886Z,89.54
2022-12-08T19:07:36.763Z,89.83
2022-12-08T19:10:39.714Z,89.97
2022-12-08T19:13:42.747Z,90.37
2022-12-08T19:16:46.861Z,90.30
2022-12-08T19:19:50.126Z,90.50
2022-12-08T19:22:53.850Z,90.24
2022-12-08T19:25:56.660Z,89.76
2022-12-08T19:28:59.902Z,90.25
2022-12-08T19:32:05.240Z,89.58
2022-12-08T19:35:08.742Z,89.61
2022-12-08T19:38:11.888Z,89.25
2022-12-08T19:41:33.919Z,89.92
2022-12-08T19:44:55.276Z,90.02
2022-12-08T19:47:58.439Z,89.53
2022-12-08T19:51:01.728Z,89.50
2022-12-08T19:54:05.170Z,90.22
2022-12-08T19:57:08.602Z,90.79
2022-12-08T20:00:13.130Z,90.70
2022-12-08T20:03:17.911Z,90.46
2022-12-08T20:06:23.374Z,89.73
2022-12-08T20:09:26.494Z,90.26
2022-12-08T20:12:29.532Z,90.16
2022-12-08T20:15:32.650Z,90.65
2022-12-08T20:18:37.168Z,90.76
2022-12-08T20:21:41.265Z,90.60
2022-12-08T20:24:44.107Z,90.64
2022-12-08T20:27:47.174Z,90.68
2022-12-08T20:30:50.432Z,91.03
2022-12-08T20:33:53.721Z,91.78
2022-12-08T20:36:56.837Z,91.11
2022-12-08T20:39:59.955Z,91.00
2022-12-08T20:43:03.043Z,91.29
2022-12-08T20:46:09.468Z,91.65
2022-12-08T20:49:13.416Z,91.72
2022-12-08T20:52:16.865Z,91.93
2022-12-08T20:55:20.049Z,91.26
2022-12-08T20:58:23.801Z,92.06
2022-12-08T21:01:27.167Z,92.20
2022-12-08T21:04:30.277Z,92.34
2022-12-08T21:07:34.274Z,92.73
2022-12-08T21:10:42.294Z,92.39
2022-12-08T21:13:47.045Z,92.31
2022-12-08T21:16:51.014Z,92.56
2022-12-08T21:19:54.033Z,92.46
2022-12-08T21:22:56.765Z,91.93
2022-12-08T21:25:59.804Z,92.30
2022-12-08T21:29:02.602Z,92.55
2022-12-08T21:32:05.635Z,92.04
2022-12-08T21:35:09.259Z,91.29
2022-12-08T21:38:12.404Z,91.35
2022-12-08T21:41:37.617Z,92.41
2022-12-08T21:44:40.773Z,92.45
2022-12-08T21:47:44.917Z,92.16
2022-12-08T21:50:48.125Z,92.18
2022-12-08T21:53:51.369Z,91.11
2022-12-08T21:56:54.392Z,91.76
2022-12-08T21:59:57.675Z,91.22
2022-12-08T22:03:00.563Z,91.74
2022-12-08T22:06:11.929Z,91.08
2022-12-08T22:09:15.475Z,90.73
2022-12-08T22:12:18.625Z,91.09
2022-12-08T22:15:21.464Z,90.60
2022-12-08T22:18:24.672Z,91.24
2022-12-08T22:21:27.894Z,91.43
2022-12-08T22:24:31.344Z,91.11
2022-12-08T22:27:34.660Z,91.23
2022-12-08T22:30:39.475Z,92.04
2022-12-08T22:33:42.997Z,91.61
2022-12-08T22:36:46.023Z,91.50
2022-12-08T22:39:48.853Z,91.25
2022-12-08T22:42:51.848Z,91.92
2022-12-08T22:45:54.761Z,91.30
2022-12-08T22:48:57.632Z,91.53
2022-12-08T22:52:00.616Z,91.32
2022-12-08T22:55:03.521Z,91.78
2022-12-08T22:58:06.245Z,91.68
2022-12-08T23:01:09.432Z,91.33
2022-12-08T23:04:17.425Z,91.33
2022-12-08T23:07:20.535Z,90.35
2022-12-08T23:10:23.399Z,89.81
2022-12-08T23:13:26.134Z,90.23
2022-12-08T23:16:29.193Z,90.14
2022-12-08T23:19:32.021Z,90.43
2022-12-08T23:22:34.756Z,91.26
2022-12-08T23:25:41.720Z,91.58
2022-12-08T23:28:44.857Z,91.76
2022-12-08T23:31:47.738Z,91.71
2022-12-08T23:34:50.760Z,92.08
2022-12-08T23:37:53.762Z,91.51
2022-12-08T23:41:02.219Z,92.22
2022-12-08T23:44:05.099Z,92.85
2022-12-08T23:47:08.035Z,92.59
2022-12-08T23:50:12.196Z,92.89
2022-12-08T23:53:15.221Z,92.52
2022-12-08T23:56:18.891Z,93.38
2022-12-08T23:59:21.745Z,93.71
